createdAt,value
2022-08-25T00:00:12.809Z,22.01
2022-08-25T00:02:40.748Z,21.88
2022-08-25T00:05:19.134Z,21.78
2022-08-25T00:07:46.877Z,21.88
2022-08-25T00:10:14.270Z,21.88
2022-08-25T00:12:41.651Z,21.48
2022-08-25T00:15:09.887Z,21.62
2022-08-25T00:17:37.417Z,21.62
2022-08-25T00:20:06.429Z,21.53
2022-08-25T00:22:34.068Z,21.36
2022-08-25T00:25:01.447Z,21.34
2022-08-25T00:27:28.849Z,21.59
2022-08-25T00:29:56.505Z,21.49
2022-08-25T00:32:25.538Z,21.60
2022-08-25T00:34:53.310Z,21.82
2022-08-25T00:37:20.997Z,21.88
2022-08-25T00:39:48.492Z,21.69
2022-08-25T00:42:16.451Z,21.60
2022-08-25T00:44:44.267Z,21.69
2022-08-25T00:47:11.653Z,21.65
2022-08-25T00:49:44.081Z,21.80
2022-08-25T00:52:19.103Z,21.85
2022-08-25T00:54:51.434Z,21.42
2022-08-25T00:57:33.925Z,21.46
2022-08-25T01:00:06.808Z,21.15
2022-08-25T01:02:34.559Z,21.08
2022-08-25T01:05:02.123Z,21.35
2022-08-25T01:07:29.541Z,21.18
2022-08-25T01:09:57.391Z,21.59
2022-08-25T01:12:24.777Z,21.49
2022-08-25T01:14:53.132Z,21.53
2022-08-25T01:17:21.946Z,21.37
2022-08-25T01:19:49.332Z,21.21
2022-08-25T01:22:17.346Z,21.18
2022-08-25T01:24:48.104Z,21.55
2022-08-25T01:27:15.490Z,21.69
2022-08-25T01:29:42.898Z,21.75
2022-08-25T01:32:13.267Z,21.29
2022-08-25T01:34:43.239Z,21.00
2022-08-25T01:37:13.688Z,21.12
2022-08-25T01:39:42.346Z,21.40
2022-08-25T01:42:14.545Z,21.24
2022-08-25T01:44:44.176Z,21.62
2022-08-25T01:47:12.208Z,21.47
2022-08-25T01:49:39.846Z,21.46
2022-08-25T01:52:28.663Z,21.28
2022-08-25T01:54:56.073Z,21.42
2022-08-25T01:57:24.260Z,21.02
2022-08-25T01:59:51.705Z,21.19
2022-08-25T02:02:19.156Z,21.22
2022-08-25T02:04:48.704Z,21.43
2022-08-25T02:07:18.556Z,21.29
2022-08-25T02:09:46.065Z,21.31
2022-08-25T02:12:13.988Z,21.41
2022-08-25T02:14:41.614Z,21.37
2022-08-25T02:17:09.775Z,21.48
2022-08-25T02:19:37.739Z,21.40
2022-08-25T02:22:05.337Z,21.39
2022-08-25T02:24:32.825Z,21.45
2022-08-25T02:27:00.586Z,21.52
2022-08-25T02:29:28.178Z,21.39
2022-08-25T02:31:55.643Z,21.29
2022-08-25T02:34:23.858Z,21.37
2022-08-25T02:36:51.249Z,21.20
2022-08-25T02:39:18.678Z,21.08
2022-08-25T02:41:46.387Z,21.17
2022-08-25T02:44:14.162Z,21.19
2022-08-25T02:46:41.740Z,21.21
2022-08-25T02:51:37.025Z,21.26
2022-08-25T02:54:05.550Z,21.28
2022-08-25T02:56:33.255Z,20.94
2022-08-25T02:59:01.919Z,21.06
2022-08-25T03:01:30.008Z,21.08
2022-08-25T03:03:57.807Z,21.16
2022-08-25T03:06:25.552Z,21.20
2022-08-25T03:08:53.340Z,21.16
2022-08-25T03:11:21.392Z,21.08
2022-08-25T03:13:51.198Z,21.03
2022-08-25T03:16:19.517Z,20.66
2022-08-25T03:18:48.315Z,20.89
2022-08-25T03:21:16.355Z,20.93
2022-08-25T03:23:45.653Z,21.18
2022-08-25T03:26:32.042Z,20.98
2022-08-25T03:29:00.894Z,21.20
2022-08-25T03:31:28.643Z,21.17
2022-08-25T03:33:56.192Z,20.96
2022-08-25T03:36:24.361Z,21.12
2022-08-25T03:38:53.297Z,21.04
2022-08-25T03:41:23.240Z,21.23
2022-08-25T03:43:51.349Z,21.16
2022-08-25T03:46:34.549Z,20.77
2022-08-25T03:49:03.482Z,20.92
2022-08-25T03:51:34.889Z,20.77
2022-08-25T03:54:03.121Z,20.82
2022-08-25T03:56:31.143Z,20.91
2022-08-25T03:58:58.761Z,20.86
2022-08-25T04:01:26.323Z,20.85
2022-08-25T04:03:54.262Z,20.72
2022-08-25T04:06:22.117Z,20.83
2022-08-25T04:08:49.618Z,20.85
2022-08-25T04:11:20.051Z,20.66
2022-08-25T04:13:47.951Z,20.58
2022-08-25T04:16:19.038Z,20.68
2022-08-25T04:18:47.998Z,20.85
2022-08-25T04:21:16.629Z,21.21
2022-08-25T04:23:45.239Z,21.05
2022-08-25T04:26:15.432Z,21.17
2022-08-25T04:28:43.177Z,21.09
2022-08-25T04:31:11.900Z,21.07
2022-08-25T04:33:40.179Z,21.36
2022-08-25T04:36:12.231Z,21.54
2022-08-25T04:38:41.924Z,21.29
2022-08-25T04:41:10.960Z,21.37
2022-08-25T04:43:40.472Z,21.51
2022-08-25T04:46:12.871Z,21.85
2022-08-25T04:48:41.032Z,21.86
2022-08-25T04:51:14.876Z,22.35
2022-08-25T04:53:43.054Z,22.45
2022-08-25T04:56:13.668Z,22.63
2022-08-25T04:58:42.140Z,22.84
2022-08-25T05:01:18.963Z,23.04
2022-08-25T05:03:48.749Z,23.34
2022-08-25T05:06:16.493Z,23.44
2022-08-25T05:08:45.888Z,23.81
2022-08-25T05:11:16.593Z,24.19
2022-08-25T05:13:51.666Z,24.28
2022-08-25T05:16:21.543Z,24.50
2022-08-25T05:18:50.905Z,24.71
2022-08-25T05:21:21.830Z,25.02
2022-08-25T05:23:49.273Z,25.22
2022-08-25T05:26:21.922Z,25.41
2022-08-25T05:28:51.303Z,25.46
2022-08-25T05:31:19.950Z,25.40
2022-08-25T05:33:47.983Z,25.57
2022-08-25T05:36:15.931Z,25.54
2022-08-25T05:38:43.910Z,25.61
2022-08-25T05:41:18.151Z,25.66
2022-08-25T05:43:48.828Z,25.46
2022-08-25T05:46:18.620Z,25.75
2022-08-25T05:48:46.321Z,25.83
2022-08-25T05:51:15.026Z,25.90
2022-08-25T05:53:44.561Z,25.88
2022-08-25T05:56:14.183Z,25.94
2022-08-25T05:58:42.752Z,25.78
2022-08-25T06:01:29.646Z,26.34
2022-08-25T06:03:57.438Z,26.71
2022-08-25T06:06:24.864Z,26.88
2022-08-25T06:08:52.285Z,26.86
2022-08-25T06:11:19.952Z,26.78
2022-08-25T06:13:47.350Z,26.65
2022-08-25T06:16:14.772Z,26.80
2022-08-25T06:18:42.470Z,26.80
2022-08-25T06:21:12.701Z,26.93
2022-08-25T06:23:40.699Z,26.87
2022-08-25T06:26:19.541Z,27.01
2022-08-25T06:28:50.379Z,27.32
2022-08-25T06:31:19.540Z,27.34
2022-08-25T06:33:47.073Z,27.71
2022-08-25T06:36:15.356Z,27.41
2022-08-25T06:38:43.701Z,27.64
2022-08-25T06:41:11.072Z,27.92
2022-08-25T06:43:41.701Z,28.06
2022-08-25T06:46:16.040Z,27.93
2022-08-25T06:48:43.549Z,27.65
2022-08-25T06:51:14.329Z,27.64
2022-08-25T06:53:43.176Z,27.75
2022-08-25T06:56:11.149Z,27.61
2022-08-25T06:58:39.185Z,27.87
2022-08-25T07:01:15.900Z,27.84
2022-08-25T07:03:48.481Z,27.83
2022-08-25T07:06:18.729Z,27.98
2022-08-25T07:08:48.011Z,27.56
2022-08-25T07:11:17.423Z,27.67
2022-08-25T07:13:45.814Z,27.54
2022-08-25T07:16:15.531Z,27.36
2022-08-25T07:18:44.806Z,26.84
2022-08-25T07:21:13.320Z,27.27
2022-08-25T07:23:41.500Z,27.26
2022-08-25T07:28:59.715Z,27.16
2022-08-25T07:31:29.767Z,27.57
2022-08-25T07:34:16.989Z,27.90
2022-08-25T07:36:44.990Z,27.84
2022-08-25T07:39:12.429Z,27.79
2022-08-25T07:41:41.875Z,27.76
2022-08-25T07:44:11.305Z,27.75
2022-08-25T07:46:38.872Z,27.74
2022-08-25T07:49:16.488Z,27.82
2022-08-25T07:52:04.463Z,27.45
2022-08-25T07:54:35.194Z,27.51
2022-08-25T07:57:04.560Z,27.57
2022-08-25T07:59:38.962Z,27.14
2022-08-25T08:02:16.037Z,27.86
2022-08-25T08:04:49.432Z,27.55
2022-08-25T08:07:18.885Z,27.74
2022-08-25T08:09:48.719Z,28.36
2022-08-25T08:12:20.411Z,28.84
2022-08-25T08:14:51.233Z,28.76
2022-08-25T08:17:18.683Z,28.36
2022-08-25T08:19:46.911Z,27.67
2022-08-25T08:22:15.729Z,27.52
2022-08-25T08:24:56.127Z,27.66
2022-08-25T08:27:24.762Z,27.95
2022-08-25T08:29:53.560Z,28.16
2022-08-25T08:32:31.462Z,28.25
2022-08-25T08:35:08.695Z,28.90
2022-08-25T08:37:39.716Z,28.40
2022-08-25T08:40:09.191Z,28.78
2022-08-25T08:42:47.088Z,28.61
2022-08-25T08:45:23.853Z,28.73
2022-08-25T08:48:01.332Z,27.73
2022-08-25T08:50:57.428Z,28.32
2022-08-25T08:53:36.168Z,28.38
2022-08-25T08:56:07.096Z,28.69
2022-08-25T08:58:49.825Z,28.10
2022-08-25T09:01:34.283Z,28.09
2022-08-25T09:04:21.067Z,27.65
2022-08-25T09:06:52.245Z,28.03
2022-08-25T09:09:35.628Z,28.35
2022-08-25T09:12:11.462Z,28.70
2022-08-25T09:14:54.336Z,28.05
2022-08-25T09:17:37.541Z,27.87
2022-08-25T09:20:30.240Z,28.65
2022-08-25T09:23:07.026Z,28.74
2022-08-25T09:26:02.583Z,28.66
2022-08-25T09:28:36.769Z,28.34
2022-08-25T09:31:13.498Z,28.69
2022-08-25T09:33:41.284Z,28.73
2022-08-25T09:36:09.210Z,29.00
2022-08-25T09:38:36.920Z,29.09
2022-08-25T09:41:06.724Z,29.03
2022-08-25T09:43:37.307Z,29.37
2022-08-25T09:46:14.953Z,29.03
2022-08-25T09:49:11.630Z,29.25
2022-08-25T09:51:43.376Z,29.50
2022-08-25T09:54:14.259Z,29.81
2022-08-25T09:56:59.373Z,29.56
2022-08-25T09:59:35.210Z,29.92
2022-08-25T10:02:25.332Z,28.99
2022-08-25T10:04:54.013Z,28.84
2022-08-25T10:07:26.765Z,29.18
2022-08-25T10:09:59.985Z,29.76
2022-08-25T10:12:42.659Z,30.23
2022-08-25T10:15:30.081Z,30.40
2022-08-25T10:18:22.417Z,30.50
2022-08-25T10:21:07.641Z,29.55
2022-08-25T10:23:39.144Z,29.87
2022-08-25T10:26:41.388Z,29.38
2022-08-25T10:29:15.259Z,29.27
2022-08-25T10:31:57.087Z,29.04
2022-08-25T10:34:51.811Z,29.00
2022-08-25T10:37:45.434Z,29.47
2022-08-25T10:40:16.658Z,30.42
2022-08-25T10:42:56.145Z,30.41
2022-08-25T10:45:45.440Z,30.66
2022-08-25T10:48:18.101Z,30.13
2022-08-25T10:50:55.083Z,30.07
2022-08-25T10:53:46.426Z,30.70
2022-08-25T10:56:25.205Z,29.68
2022-08-25T10:59:09.254Z,29.25
2022-08-25T11:01:48.166Z,29.56
2022-08-25T11:04:34.603Z,29.57
2022-08-25T11:07:27.215Z,30.03
2022-08-25T11:09:58.058Z,30.04
2022-08-25T11:12:36.185Z,30.63
2022-08-25T11:15:37.744Z,30.52
2022-08-25T11:18:14.569Z,30.31
2022-08-25T11:20:52.093Z,29.74
2022-08-25T11:23:35.562Z,30.04
2022-08-25T11:26:14.124Z,29.77
2022-08-25T11:28:59.459Z,29.39
2022-08-25T11:31:27.804Z,29.83
2022-08-25T11:33:55.825Z,30.35
2022-08-25T11:36:32.323Z,30.02
2022-08-25T11:39:20.916Z,30.37
2022-08-25T11:42:30.211Z,30.88
2022-08-25T11:45:29.064Z,30.67
2022-08-25T11:48:15.808Z,31.20
2022-08-25T11:51:05.004Z,31.28
2022-08-25T11:53:34.719Z,31.67
2022-08-25T11:56:27.516Z,31.75
2022-08-25T11:58:55.011Z,31.62
2022-08-25T12:01:42.642Z,31.25
2022-08-25T12:04:16.444Z,31.83
2022-08-25T12:07:05.890Z,32.25
2022-08-25T12:09:54.591Z,32.65
2022-08-25T12:12:58.482Z,32.54
2022-08-25T12:15:55.283Z,32.58
2022-08-25T12:18:22.926Z,32.26
2022-08-25T12:21:11.052Z,32.61
2022-08-25T12:24:03.413Z,32.84
2022-08-25T12:26:33.920Z,32.89
2022-08-25T12:29:22.430Z,32.66
2022-08-25T12:32:24.285Z,32.07
2022-08-25T12:35:13.824Z,32.19
2022-08-25T12:37:56.070Z,32.33
2022-08-25T12:40:33.486Z,32.52
2022-08-25T12:43:11.442Z,32.90
2022-08-25T12:45:49.653Z,32.41
2022-08-25T12:48:26.402Z,32.48
2022-08-25T12:51:01.286Z,32.32
2022-08-25T12:53:28.814Z,32.47
2022-08-25T12:56:08.991Z,32.87
2022-08-25T12:59:15.781Z,33.06
2022-08-25T13:02:03.169Z,33.43
2022-08-25T13:04:59.586Z,33.32
2022-08-25T13:08:02.812Z,33.46
2022-08-25T13:10:58.481Z,33.50
2022-08-25T13:13:40.400Z,32.99
2022-08-25T13:16:16.022Z,32.59
2022-08-25T13:18:43.631Z,32.46
2022-08-25T13:21:38.904Z,32.23
2022-08-25T13:24:10.280Z,32.34
2022-08-25T13:26:48.041Z,32.40
2022-08-25T13:29:20.861Z,32.31
2022-08-25T13:31:59.282Z,32.40
2022-08-25T13:34:35.007Z,32.29
2022-08-25T13:37:32.354Z,31.81
2022-08-25T13:40:27.325Z,32.06
2022-08-25T13:43:05.569Z,32.24
2022-08-25T13:45:41.138Z,32.38
2022-08-25T13:48:20.895Z,32.40
2022-08-25T13:50:52.099Z,32.18
2022-08-25T13:53:25.599Z,32.64
2022-08-25T13:55:57.131Z,32.13
2022-08-25T13:58:44.891Z,32.31
2022-08-25T14:01:23.633Z,32.21
2022-08-25T14:04:32.700Z,32.27
2022-08-25T14:07:19.350Z,32.14
2022-08-25T14:09:57.239Z,32.34
2022-08-25T14:12:30.406Z,32.37
2022-08-25T14:15:25.942Z,32.45
2022-08-25T14:18:06.621Z,32.16
2022-08-25T14:20:36.305Z,32.41
2022-08-25T14:23:09.971Z,31.47
2022-08-25T14:25:42.208Z,31.74
2022-08-25T14:28:14.040Z,32.19
2022-08-25T14:30:46.704Z,31.99
2022-08-25T14:33:16.533Z,32.41
2022-08-25T14:35:50.251Z,32.71
2022-08-25T14:38:19.760Z,32.32
2022-08-25T14:40:48.357Z,32.00
2022-08-25T14:43:15.896Z,32.65
2022-08-25T14:45:45.941Z,32.42
2022-08-25T14:48:25.265Z,32.49
2022-08-25T14:50:54.566Z,32.54
2022-08-25T14:53:22.369Z,32.52
2022-08-25T14:55:53.768Z,32.70
2022-08-25T14:58:28.081Z,32.83
2022-08-25T15:01:02.935Z,32.56
2022-08-25T15:03:35.599Z,32.85
2022-08-25T15:06:04.303Z,32.32
2022-08-25T15:08:50.699Z,32.44
2022-08-25T15:11:18.448Z,32.38
2022-08-25T15:13:49.467Z,32.05
2022-08-25T15:16:39.605Z,31.74
2022-08-25T15:19:14.416Z,32.32
2022-08-25T15:21:44.571Z,32.06
2022-08-25T15:24:17.511Z,31.64
2022-08-25T15:29:24.294Z,31.39
2022-08-25T15:31:52.321Z,31.55
2022-08-25T15:34:19.844Z,31.93
2022-08-25T15:36:48.071Z,32.08
2022-08-25T15:39:18.808Z,32.15
2022-08-25T15:41:49.212Z,32.32
2022-08-25T15:44:17.422Z,32.00
2022-08-25T15:46:47.106Z,32.03
2022-08-25T15:49:23.150Z,31.65
2022-08-25T15:51:52.938Z,31.57
2022-08-25T15:54:23.122Z,31.22
2022-08-25T15:56:51.732Z,31.29
2022-08-25T15:59:21.625Z,31.57
2022-08-25T16:01:53.529Z,31.76
2022-08-25T16:04:23.395Z,31.63
2022-08-25T16:06:51.996Z,31.46
2022-08-25T16:09:22.901Z,31.70
2022-08-25T16:11:56.930Z,31.71
2022-08-25T16:14:26.334Z,31.40
2022-08-25T16:16:58.322Z,31.32
2022-08-25T16:19:30.084Z,31.17
2022-08-25T16:21:58.499Z,30.59
2022-08-25T16:24:27.520Z,30.37
2022-08-25T16:27:00.214Z,30.94
2022-08-25T16:29:39.925Z,30.95
2022-08-25T16:32:08.197Z,30.76
2022-08-25T16:34:36.697Z,30.58
2022-08-25T16:37:05.026Z,30.74
2022-08-25T16:39:34.207Z,30.77
2022-08-25T16:42:01.577Z,30.96
2022-08-25T16:44:29.416Z,30.55
2022-08-25T16:46:57.668Z,30.79
2022-08-25T16:49:25.440Z,30.81
2022-08-25T16:51:57.611Z,30.55
2022-08-25T16:54:45.553Z,30.55
2022-08-25T16:57:13.632Z,30.87
2022-08-25T16:59:42.537Z,30.74
2022-08-25T17:02:12.128Z,30.50
2022-08-25T17:04:40.766Z,30.53
2022-08-25T17:07:08.552Z,30.66
2022-08-25T17:09:36.365Z,30.60
2022-08-25T17:12:05.102Z,30.34
2022-08-25T17:14:33.072Z,30.34
2022-08-25T17:17:01.102Z,30.17
2022-08-25T17:19:28.961Z,30.48
2022-08-25T17:21:58.482Z,30.33
2022-08-25T17:24:29.367Z,30.14
2022-08-25T17:26:58.203Z,30.12
2022-08-25T17:29:26.239Z,29.84
2022-08-25T17:31:53.918Z,29.95
2022-08-25T17:34:23.249Z,29.96
2022-08-25T17:36:51.512Z,29.85
2022-08-25T17:39:22.100Z,29.81
2022-08-25T17:41:51.011Z,29.81
2022-08-25T17:44:18.804Z,29.82
2022-08-25T17:46:48.209Z,29.79
2022-08-25T17:49:17.090Z,29.82
2022-08-25T17:51:45.259Z,29.93
2022-08-25T17:54:13.343Z,29.76
2022-08-25T17:56:41.319Z,29.81
2022-08-25T17:59:08.798Z,29.62
2022-08-25T18:01:40.515Z,29.69
2022-08-25T18:04:17.398Z,29.53
2022-08-25T18:06:47.556Z,29.44
2022-08-25T18:09:16.111Z,29.00
2022-08-25T18:11:45.600Z,29.33
2022-08-25T18:14:14.373Z,29.19
2022-08-25T18:16:42.494Z,28.83
2022-08-25T18:19:10.960Z,28.80
2022-08-25T18:21:39.008Z,28.58
2022-08-25T18:24:07.920Z,28.90
2022-08-25T18:26:35.780Z,29.03
2022-08-25T18:29:03.956Z,28.90
2022-08-25T18:31:31.844Z,28.78
2022-08-25T18:33:59.745Z,28.61
2022-08-25T18:36:27.308Z,28.50
2022-08-25T18:39:14.340Z,28.43
2022-08-25T18:41:45.022Z,28.27
2022-08-25T18:44:15.438Z,27.89
2022-08-25T18:46:43.435Z,28.04
2022-08-25T18:49:15.667Z,28.06
2022-08-25T18:51:44.850Z,28.14
2022-08-25T18:54:22.806Z,28.11
2022-08-25T18:56:53.185Z,28.03
2022-08-25T18:59:23.604Z,27.92
2022-08-25T19:01:53.182Z,27.92
2022-08-25T19:04:20.948Z,28.04
2022-08-25T19:06:56.282Z,27.94
2022-08-25T19:09:23.678Z,27.99
2022-08-25T19:11:52.676Z,27.71
2022-08-25T19:14:22.398Z,27.63
2022-08-25T19:16:52.065Z,27.31
2022-08-25T19:19:20.685Z,27.29
2022-08-25T19:21:48.603Z,27.32
2022-08-25T19:24:19.383Z,27.38
2022-08-25T19:26:46.864Z,27.53
2022-08-25T19:29:17.320Z,27.33
2022-08-25T19:31:47.739Z,27.20
2022-08-25T19:34:21.097Z,27.37
2022-08-25T19:36:48.683Z,27.41
2022-08-25T19:39:17.049Z,27.03
2022-08-25T19:41:45.798Z,27.15
2022-08-25T19:44:13.430Z,26.94
2022-08-25T19:46:43.380Z,27.13
2022-08-25T19:49:14.568Z,27.27
2022-08-25T19:51:46.093Z,27.38
2022-08-25T19:54:20.738Z,27.29
2022-08-25T19:56:54.962Z,27.39
2022-08-25T19:59:25.821Z,27.41
2022-08-25T20:01:54.408Z,27.06
2022-08-25T20:04:24.127Z,27.41
2022-08-25T20:06:53.267Z,27.22
2022-08-25T20:09:39.008Z,27.19
2022-08-25T20:12:10.451Z,27.17
2022-08-25T20:14:39.120Z,27.04
2022-08-25T20:17:14.451Z,27.19
2022-08-25T20:19:57.054Z,27.27
2022-08-25T20:22:29.971Z,27.30
2022-08-25T20:25:01.221Z,27.27
2022-08-25T20:27:33.783Z,26.93
2022-08-25T20:30:02.569Z,26.89
2022-08-25T20:32:32.607Z,26.79
2022-08-25T20:35:01.166Z,26.79
2022-08-25T20:37:29.492Z,26.82
2022-08-25T20:39:57.265Z,26.75
2022-08-25T20:42:24.872Z,26.83
2022-08-25T20:44:52.939Z,26.84
2022-08-25T20:47:21.123Z,26.72
2022-08-25T20:49:50.232Z,26.53
2022-08-25T20:52:19.202Z,26.33
2022-08-25T20:54:49.432Z,26.39
2022-08-25T20:57:25.518Z,26.64
2022-08-25T20:59:54.769Z,26.57
2022-08-25T21:02:23.902Z,26.29
2022-08-25T21:04:52.608Z,26.32
2022-08-25T21:07:20.851Z,26.07
2022-08-25T21:09:51.975Z,26.23
2022-08-25T21:12:19.936Z,25.99
2022-08-25T21:14:47.418Z,26.15
2022-08-25T21:17:15.727Z,26.35
2022-08-25T21:22:16.410Z,26.10
2022-08-25T21:24:44.979Z,26.15
2022-08-25T21:27:12.466Z,26.12
2022-08-25T21:29:44.643Z,26.15
2022-08-25T21:32:23.702Z,26.29
2022-08-25T21:34:55.270Z,25.66
2022-08-25T21:37:24.863Z,25.56
2022-08-25T21:39:53.196Z,25.71
2022-08-25T21:42:22.351Z,25.75
2022-08-25T21:44:50.763Z,25.40
2022-08-25T21:47:20.826Z,25.43
2022-08-25T21:49:49.903Z,25.55
2022-08-25T21:52:18.013Z,25.81
2022-08-25T21:54:45.812Z,25.52
2022-08-25T21:57:13.350Z,25.17
2022-08-25T21:59:43.681Z,25.30
2022-08-25T22:02:13.160Z,25.63
2022-08-25T22:04:42.223Z,25.49
2022-08-25T22:07:11.001Z,25.69
2022-08-25T22:09:40.017Z,25.64
2022-08-25T22:12:08.202Z,25.75
2022-08-25T22:14:37.701Z,25.75
2022-08-25T22:17:09.011Z,25.62
2022-08-25T22:19:38.789Z,25.56
2022-08-25T22:22:06.887Z,25.69
2022-08-25T22:24:34.460Z,25.61
2022-08-25T22:27:02.206Z,25.50
2022-08-25T22:29:30.515Z,25.38
2022-08-25T22:32:02.145Z,25.32
2022-08-25T22:34:34.567Z,25.56
2022-08-25T22:37:04.359Z,25.40
2022-08-25T22:39:34.268Z,25.46
2022-08-25T22:42:03.300Z,25.35
2022-08-25T22:44:30.846Z,25.49
2022-08-25T22:46:58.519Z,25.35
2022-08-25T22:49:28.861Z,25.55
2022-08-25T22:51:56.306Z,25.17
2022-08-25T22:54:25.439Z,25.39
2022-08-25T22:56:53.482Z,25.03
2022-08-25T22:59:22.458Z,25.29
2022-08-25T23:01:52.663Z,25.18
2022-08-25T23:04:22.743Z,25.40
2022-08-25T23:06:52.757Z,25.40
2022-08-25T23:09:20.946Z,25.20
2022-08-25T23:11:51.339Z,25.23
2022-08-25T23:14:20.067Z,25.23
2022-08-25T23:16:50.142Z,25.20
2022-08-25T23:19:18.315Z,25.18
2022-08-25T23:22:06.149Z,25.28
2022-08-25T23:24:33.512Z,24.86
2022-08-25T23:27:03.954Z,24.67
2022-08-25T23:29:33.136Z,25.03
2022-08-25T23:32:00.903Z,24.88
2022-08-25T23:34:28.716Z,24.75
2022-08-25T23:36:56.948Z,24.77
2022-08-25T23:39:25.168Z,25.04
2022-08-25T23:41:53.161Z,24.96
2022-08-25T23:44:22.504Z,24.72
2022-08-25T23:46:52.491Z,24.68
2022-08-25T23:49:22.616Z,24.75
2022-08-25T23:51:52.744Z,24.65
2022-08-25T23:54:21.311Z,24.88
2022-08-25T23:56:52.484Z,24.60
2022-08-25T23:59:24.519Z,24.55
